Terminal Aerodrome Forecast
Issued by NWS

Home | Current Version | Previous Version | Text Only | Print | Product List | Glossary On
Versions: 1 2 3 4 5 6 7 8 9 10 11 12 13 14 15 16 17 18 19
000
FTUS45 KBOI 011120
TAFJER
TAF
KJER 011120Z 0112/0212 VRB06KT P6SM VCSH FEW070 BKN100
     FM012100 25010KT P6SM BKN120
     FM020400 08008KT P6SM BKN120=

USA.gov is the U.S. government's official web portal to all federal, state and local government web resources and services.